sensor_id;sensor_type;location;lat;lon;timestamp;P1;durP1;ratioP1;P2;durP2;ratioP2
8889;SDS011;4481;43.406;24.454;2022-09-09T00:00:47;8.00;;;7.30;;
8889;SDS011;4481;43.406;24.454;2022-09-09T00:03:21;8.37;;;7.57;;
8889;SDS011;4481;43.406;24.454;2022-09-09T00:05:53;9.50;;;7.63;;
8889;SDS011;4481;43.406;24.454;2022-09-09T00:08:26;8.20;;;7.37;;
8889;SDS011;4481;43.406;24.454;2022-09-09T00:11:04;9.87;;;7.27;;
8889;SDS011;4481;43.406;24.454;2022-09-09T00:13:33;8.50;;;7.63;;
8889;SDS011;4481;43.406;24.454;2022-09-09T00:16:07;8.37;;;7.57;;
8889;SDS011;4481;43.406;24.454;2022-09-09T00:18:45;8.53;;;7.40;;
8889;SDS011;4481;43.406;24.454;2022-09-09T00:21:18;9.10;;;6.93;;
8889;SDS011;4481;43.406;24.454;2022-09-09T00:23:50;7.67;;;6.90;;
8889;SDS011;4481;43.406;24.454;2022-09-09T00:26:20;9.27;;;7.20;;
8889;SDS011;4481;43.406;24.454;2022-09-09T00:28:57;8.67;;;6.93;;
8889;SDS011;4481;43.406;24.454;2022-09-09T00:31:29;9.90;;;7.47;;
8889;SDS011;4481;43.406;24.454;2022-09-09T00:33:58;8.90;;;7.73;;
8889;SDS011;4481;43.406;24.454;2022-09-09T00:36:31;8.00;;;7.30;;
8889;SDS011;4481;43.406;24.454;2022-09-09T00:38:59;14.10;;;7.60;;
8889;SDS011;4481;43.406;24.454;2022-09-09T00:41:29;8.20;;;7.40;;
8889;SDS011;4481;43.406;24.454;2022-09-09T00:44:13;8.20;;;7.50;;
8889;SDS011;4481;43.406;24.454;2022-09-09T00:46:54;8.50;;;7.70;;
8889;SDS011;4481;43.406;24.454;2022-09-09T00:49:31;7.87;;;7.20;;
8889;SDS011;4481;43.406;24.454;2022-09-09T00:52:11;10.77;;;7.00;;
8889;SDS011;4481;43.406;24.454;2022-09-09T00:54:48;8.13;;;7.10;;
8889;SDS011;4481;43.406;24.454;2022-09-09T00:57:23;7.23;;;6.53;;
8889;SDS011;4481;43.406;24.454;2022-09-09T00:59:56;7.97;;;7.00;;
8889;SDS011;4481;43.406;24.454;2022-09-09T01:02:29;7.77;;;7.03;;
8889;SDS011;4481;43.406;24.454;2022-09-09T01:05:04;7.40;;;6.73;;
8889;SDS011;4481;43.406;24.454;2022-09-09T01:07:37;8.93;;;6.20;;
8889;SDS011;4481;43.406;24.454;2022-09-09T01:10:05;11.50;;;7.20;;
8889;SDS011;4481;43.406;24.454;2022-09-09T01:12:38;7.73;;;6.80;;
8889;SDS011;4481;43.406;24.454;2022-09-09T01:15:10;7.20;;;6.60;;
8889;SDS011;4481;43.406;24.454;2022-09-09T01:17:50;7.93;;;6.90;;
8889;SDS011;4481;43.406;24.454;2022-09-09T01:20:24;7.77;;;7.07;;
8889;SDS011;4481;43.406;24.454;2022-09-09T01:23:00;8.93;;;7.10;;
8889;SDS011;4481;43.406;24.454;2022-09-09T01:26:04;7.97;;;7.27;;
8889;SDS011;4481;43.406;24.454;2022-09-09T01:28:39;7.33;;;6.73;;
8889;SDS011;4481;43.406;24.454;2022-09-09T01:31:09;8.00;;;7.30;;
8889;SDS011;4481;43.406;24.454;2022-09-09T01:33:39;10.87;;;7.67;;
8889;SDS011;4481;43.406;24.454;2022-09-09T01:36:06;8.60;;;7.70;;
8889;SDS011;4481;43.406;24.454;2022-09-09T01:38:35;8.67;;;7.87;;
8889;SDS011;4481;43.406;24.454;2022-09-09T01:41:03;7.90;;;7.23;;
8889;SDS011;4481;43.406;24.454;2022-09-09T01:43:29;9.00;;;7.73;;
8889;SDS011;4481;43.406;24.454;2022-09-09T01:45:56;10.47;;;7.20;;
8889;SDS011;4481;43.406;24.454;2022-09-09T01:48:25;7.07;;;6.47;;
8889;SDS011;4481;43.406;24.454;2022-09-09T01:50:53;8.93;;;7.63;;
8889;SDS011;4481;43.406;24.454;2022-09-09T01:53:19;8.37;;;7.57;;
8889;SDS011;4481;43.406;24.454;2022-09-09T01:55:49;9.87;;;8.20;;
8889;SDS011;4481;43.406;24.454;2022-09-09T01:58:24;8.83;;;7.97;;
8889;SDS011;4481;43.406;24.454;2022-09-09T02:01:01;12.77;;;8.50;;
8889;SDS011;4481;43.406;24.454;2022-09-09T02:03:32;8.77;;;8.00;;
8889;SDS011;4481;43.406;24.454;2022-09-09T02:06:01;9.67;;;8.67;;
8889;SDS011;4481;43.406;24.454;2022-09-09T02:08:36;12.23;;;8.90;;
8889;SDS011;4481;43.406;24.454;2022-09-09T02:11:09;8.53;;;7.73;;
8889;SDS011;4481;43.406;24.454;2022-09-09T02:13:39;9.47;;;8.47;;
8889;SDS011;4481;43.406;24.454;2022-09-09T02:16:08;8.97;;;8.07;;
8889;SDS011;4481;43.406;24.454;2022-09-09T02:18:39;11.03;;;7.80;;
8889;SDS011;4481;43.406;24.454;2022-09-09T02:21:09;10.97;;;7.97;;
8889;SDS011;4481;43.406;24.454;2022-09-09T02:23:38;9.20;;;8.30;;
8889;SDS011;4481;43.406;24.454;2022-09-09T02:26:07;10.47;;;8.20;;
8889;SDS011;4481;43.406;24.454;2022-09-09T02:28:36;11.07;;;8.07;;
8889;SDS011;4481;43.406;24.454;2022-09-09T02:31:05;10.07;;;9.07;;
8889;SDS011;4481;43.406;24.454;2022-09-09T02:33:33;9.63;;;8.63;;
8889;SDS011;4481;43.406;24.454;2022-09-09T02:36:04;10.53;;;9.03;;
8889;SDS011;4481;43.406;24.454;2022-09-09T02:38:34;10.63;;;8.60;;
8889;SDS011;4481;43.406;24.454;2022-09-09T02:41:06;9.30;;;8.50;;
8889;SDS011;4481;43.406;24.454;2022-09-09T02:43:32;10.73;;;8.07;;
8889;SDS011;4481;43.406;24.454;2022-09-09T02:46:02;8.93;;;8.03;;
8889;SDS011;4481;43.406;24.454;2022-09-09T02:48:36;8.70;;;7.90;;
8889;SDS011;4481;43.406;24.454;2022-09-09T02:51:14;9.77;;;8.67;;
8889;SDS011;4481;43.406;24.454;2022-09-09T02:53:47;8.97;;;8.17;;
8889;SDS011;4481;43.406;24.454;2022-09-09T02:56:22;8.87;;;7.97;;
8889;SDS011;4481;43.406;24.454;2022-09-09T02:58:53;9.10;;;8.20;;
8889;SDS011;4481;43.406;24.454;2022-09-09T03:01:20;9.50;;;8.10;;
8889;SDS011;4481;43.406;24.454;2022-09-09T03:03:47;8.70;;;7.93;;
8889;SDS011;4481;43.406;24.454;2022-09-09T03:06:13;10.70;;;8.33;;
8889;SDS011;4481;43.406;24.454;2022-09-09T03:08:39;9.03;;;8.23;;
8889;SDS011;4481;43.406;24.454;2022-09-09T03:11:06;8.40;;;7.57;;
8889;SDS011;4481;43.406;24.454;2022-09-09T03:13:34;9.10;;;8.20;;
8889;SDS011;4481;43.406;24.454;2022-09-09T03:16:00;8.60;;;7.80;;
8889;SDS011;4481;43.406;24.454;2022-09-09T03:18:29;9.77;;;8.87;;
8889;SDS011;4481;43.406;24.454;2022-09-09T03:20:55;9.97;;;8.97;;
8889;SDS011;4481;43.406;24.454;2022-09-09T03:23:22;13.37;;;9.03;;
8889;SDS011;4481;43.406;24.454;2022-09-09T03:25:49;17.10;;;9.67;;
8889;SDS011;4481;43.406;24.454;2022-09-09T03:28:17;11.23;;;9.33;;
8889;SDS011;4481;43.406;24.454;2022-09-09T03:30:43;10.40;;;9.30;;
8889;SDS011;4481;43.406;24.454;2022-09-09T03:33:09;12.60;;;9.53;;
8889;SDS011;4481;43.406;24.454;2022-09-09T03:35:35;16.47;;;10.60;;
8889;SDS011;4481;43.406;24.454;2022-09-09T03:38:02;10.70;;;9.70;;
8889;SDS011;4481;43.406;24.454;2022-09-09T03:40:29;11.57;;;10.37;;
8889;SDS011;4481;43.406;24.454;2022-09-09T03:42:56;10.43;;;9.43;;
8889;SDS011;4481;43.406;24.454;2022-09-09T03:45:22;11.73;;;10.47;;
8889;SDS011;4481;43.406;24.454;2022-09-09T03:47:48;15.37;;;9.87;;
8889;SDS011;4481;43.406;24.454;2022-09-09T03:50:15;10.93;;;9.83;;
8889;SDS011;4481;43.406;24.454;2022-09-09T03:52:41;12.40;;;11.07;;
8889;SDS011;4481;43.406;24.454;2022-09-09T03:55:08;18.30;;;12.50;;
8889;SDS011;4481;43.406;24.454;2022-09-09T03:57:35;12.40;;;10.80;;
8889;SDS011;4481;43.406;24.454;2022-09-09T04:00:02;12.77;;;10.80;;
8889;SDS011;4481;43.406;24.454;2022-09-09T04:02:28;9.73;;;8.77;;
8889;SDS011;4481;43.406;24.454;2022-09-09T04:04:55;10.63;;;9.63;;
8889;SDS011;4481;43.406;24.454;2022-09-09T04:07:21;10.03;;;9.13;;
8889;SDS011;4481;43.406;24.454;2022-09-09T04:09:47;11.03;;;9.17;;
8889;SDS011;4481;43.406;24.454;2022-09-09T04:12:14;10.73;;;9.43;;
8889;SDS011;4481;43.406;24.454;2022-09-09T04:14:41;13.80;;;12.50;;
8889;SDS011;4481;43.406;24.454;2022-09-09T04:17:07;15.33;;;13.67;;
8889;SDS011;4481;43.406;24.454;2022-09-09T04:19:34;14.83;;;13.43;;
8889;SDS011;4481;43.406;24.454;2022-09-09T04:22:00;13.77;;;11.70;;
8889;SDS011;4481;43.406;24.454;2022-09-09T04:24:26;16.23;;;10.90;;
8889;SDS011;4481;43.406;24.454;2022-09-09T04:26:54;13.17;;;10.90;;
8889;SDS011;4481;43.406;24.454;2022-09-09T04:29:21;11.37;;;8.83;;
8889;SDS011;4481;43.406;24.454;2022-09-09T04:31:47;10.77;;;9.67;;
8889;SDS011;4481;43.406;24.454;2022-09-09T04:34:13;9.63;;;8.73;;
8889;SDS011;4481;43.406;24.454;2022-09-09T04:36:39;12.97;;;9.53;;
8889;SDS011;4481;43.406;24.454;2022-09-09T04:39:05;13.93;;;10.13;;
8889;SDS011;4481;43.406;24.454;2022-09-09T04:41:32;10.65;;;9.55;;
8889;SDS011;4481;43.406;24.454;2022-09-09T04:43:58;11.17;;;10.07;;
8889;SDS011;4481;43.406;24.454;2022-09-09T04:46:26;10.07;;;9.03;;
8889;SDS011;4481;43.406;24.454;2022-09-09T04:48:52;10.47;;;9.33;;
8889;SDS011;4481;43.406;24.454;2022-09-09T04:51:19;11.47;;;9.40;;
8889;SDS011;4481;43.406;24.454;2022-09-09T04:53:45;13.93;;;10.13;;
8889;SDS011;4481;43.406;24.454;2022-09-09T04:56:13;17.47;;;9.67;;
8889;SDS011;4481;43.406;24.454;2022-09-09T04:58:40;11.50;;;10.13;;
8889;SDS011;4481;43.406;24.454;2022-09-09T05:01:08;26.80;;;13.97;;
8889;SDS011;4481;43.406;24.454;2022-09-09T05:03:37;18.53;;;11.30;;
8889;SDS011;4481;43.406;24.454;2022-09-09T05:06:04;14.90;;;13.23;;
8889;SDS011;4481;43.406;24.454;2022-09-09T05:08:32;30.60;;;27.50;;
8889;SDS011;4481;43.406;24.454;2022-09-09T05:10:58;36.77;;;32.80;;
8889;SDS011;4481;43.406;24.454;2022-09-09T05:13:24;23.93;;;21.07;;
8889;SDS011;4481;43.406;24.454;2022-09-09T05:15:51;27.23;;;16.87;;
8889;SDS011;4481;43.406;24.454;2022-09-09T05:18:18;19.43;;;14.17;;
8889;SDS011;4481;43.406;24.454;2022-09-09T05:20:45;14.47;;;11.90;;
8889;SDS011;4481;43.406;24.454;2022-09-09T05:23:11;12.20;;;9.53;;
8889;SDS011;4481;43.406;24.454;2022-09-09T05:25:38;14.00;;;8.63;;
8889;SDS011;4481;43.406;24.454;2022-09-09T05:28:05;12.60;;;8.80;;
8889;SDS011;4481;43.406;24.454;2022-09-09T05:30:32;10.80;;;8.87;;
8889;SDS011;4481;43.406;24.454;2022-09-09T05:32:59;15.43;;;9.30;;
8889;SDS011;4481;43.406;24.454;2022-09-09T05:35:25;8.43;;;7.50;;
8889;SDS011;4481;43.406;24.454;2022-09-09T05:37:53;8.27;;;6.90;;
8889;SDS011;4481;43.406;24.454;2022-09-09T05:40:19;7.47;;;6.77;;
8889;SDS011;4481;43.406;24.454;2022-09-09T05:42:46;11.47;;;7.47;;
8889;SDS011;4481;43.406;24.454;2022-09-09T05:45:12;7.40;;;6.00;;
8889;SDS011;4481;43.406;24.454;2022-09-09T05:47:38;8.53;;;6.67;;
8889;SDS011;4481;43.406;24.454;2022-09-09T05:50:05;7.27;;;6.57;;
8889;SDS011;4481;43.406;24.454;2022-09-09T05:52:32;11.03;;;8.17;;
8889;SDS011;4481;43.406;24.454;2022-09-09T05:54:58;10.50;;;8.67;;
8889;SDS011;4481;43.406;24.454;2022-09-09T05:57:24;13.97;;;12.23;;
8889;SDS011;4481;43.406;24.454;2022-09-09T05:59:51;9.13;;;8.03;;
8889;SDS011;4481;43.406;24.454;2022-09-09T06:02:17;10.50;;;7.97;;
8889;SDS011;4481;43.406;24.454;2022-09-09T06:04:43;11.87;;;7.93;;
8889;SDS011;4481;43.406;24.454;2022-09-09T06:07:09;6.50;;;5.57;;
8889;SDS011;4481;43.406;24.454;2022-09-09T06:09:35;10.13;;;5.83;;
8889;SDS011;4481;43.406;24.454;2022-09-09T06:12:02;6.87;;;6.20;;
8889;SDS011;4481;43.406;24.454;2022-09-09T06:14:28;11.07;;;7.63;;
8889;SDS011;4481;43.406;24.454;2022-09-09T06:16:55;11.10;;;6.20;;
8889;SDS011;4481;43.406;24.454;2022-09-09T06:19:21;9.37;;;7.27;;
8889;SDS011;4481;43.406;24.454;2022-09-09T06:21:49;11.23;;;6.33;;
8889;SDS011;4481;43.406;24.454;2022-09-09T06:24:15;10.90;;;6.10;;
8889;SDS011;4481;43.406;24.454;2022-09-09T06:26:44;9.20;;;6.90;;
8889;SDS011;4481;43.406;24.454;2022-09-09T06:29:11;28.90;;;7.90;;
8889;SDS011;4481;43.406;24.454;2022-09-09T06:31:37;13.00;;;5.70;;
8889;SDS011;4481;43.406;24.454;2022-09-09T06:34:04;10.50;;;5.87;;
8889;SDS011;4481;43.406;24.454;2022-09-09T06:36:32;6.33;;;5.07;;
8889;SDS011;4481;43.406;24.454;2022-09-09T06:39:00;6.80;;;6.13;;
8889;SDS011;4481;43.406;24.454;2022-09-09T06:41:27;8.80;;;5.53;;
8889;SDS011;4481;43.406;24.454;2022-09-09T06:43:55;8.13;;;6.00;;
8889;SDS011;4481;43.406;24.454;2022-09-09T06:46:23;10.77;;;6.33;;
8889;SDS011;4481;43.406;24.454;2022-09-09T06:48:53;11.63;;;5.83;;
8889;SDS011;4481;43.406;24.454;2022-09-09T06:51:21;6.03;;;5.23;;
8889;SDS011;4481;43.406;24.454;2022-09-09T06:53:50;15.73;;;6.20;;
8889;SDS011;4481;43.406;24.454;2022-09-09T06:56:18;15.63;;;6.47;;
8889;SDS011;4481;43.406;24.454;2022-09-09T06:58:46;14.90;;;6.17;;
8889;SDS011;4481;43.406;24.454;2022-09-09T07:01:14;13.30;;;6.23;;
8889;SDS011;4481;43.406;24.454;2022-09-09T07:03:42;13.40;;;5.43;;
8889;SDS011;4481;43.406;24.454;2022-09-09T07:06:13;19.07;;;5.97;;
8889;SDS011;4481;43.406;24.454;2022-09-09T07:08:42;13.67;;;5.67;;
8889;SDS011;4481;43.406;24.454;2022-09-09T07:11:08;10.33;;;6.27;;
8889;SDS011;4481;43.406;24.454;2022-09-09T07:13:36;6.57;;;5.30;;
8889;SDS011;4481;43.406;24.454;2022-09-09T07:16:05;6.23;;;5.10;;
8889;SDS011;4481;43.406;24.454;2022-09-09T07:18:32;6.60;;;5.77;;
8889;SDS011;4481;43.406;24.454;2022-09-09T07:21:00;6.77;;;5.10;;
8889;SDS011;4481;43.406;24.454;2022-09-09T07:23:27;6.27;;;5.67;;
8889;SDS011;4481;43.406;24.454;2022-09-09T07:25:55;6.60;;;5.40;;
8889;SDS011;4481;43.406;24.454;2022-09-09T07:28:21;14.63;;;9.70;;
8889;SDS011;4481;43.406;24.454;2022-09-09T07:30:54;22.40;;;14.70;;
8889;SDS011;4481;43.406;24.454;2022-09-09T07:33:21;14.87;;;12.73;;
8889;SDS011;4481;43.406;24.454;2022-09-09T07:35:47;11.60;;;7.20;;
8889;SDS011;4481;43.406;24.454;2022-09-09T07:38:14;9.53;;;7.63;;
8889;SDS011;4481;43.406;24.454;2022-09-09T07:40:40;8.77;;;6.13;;
8889;SDS011;4481;43.406;24.454;2022-09-09T07:43:06;6.20;;;5.67;;
8889;SDS011;4481;43.406;24.454;2022-09-09T07:45:33;26.10;;;7.27;;
8889;SDS011;4481;43.406;24.454;2022-09-09T07:48:00;17.07;;;5.63;;
8889;SDS011;4481;43.406;24.454;2022-09-09T07:50:27;6.90;;;5.90;;
8889;SDS011;4481;43.406;24.454;2022-09-09T07:52:54;7.87;;;5.60;;
8889;SDS011;4481;43.406;24.454;2022-09-09T07:55:21;5.53;;;5.03;;
8889;SDS011;4481;43.406;24.454;2022-09-09T07:57:50;8.17;;;5.70;;
8889;SDS011;4481;43.406;24.454;2022-09-09T08:00:16;8.87;;;7.03;;
8889;SDS011;4481;43.406;24.454;2022-09-09T08:02:44;9.40;;;6.60;;
8889;SDS011;4481;43.406;24.454;2022-09-09T08:05:11;8.67;;;6.37;;
8889;SDS011;4481;43.406;24.454;2022-09-09T08:07:37;17.00;;;7.30;;
8889;SDS011;4481;43.406;24.454;2022-09-09T08:10:04;15.13;;;6.33;;
8889;SDS011;4481;43.406;24.454;2022-09-09T08:12:32;9.47;;;6.00;;
8889;SDS011;4481;43.406;24.454;2022-09-09T08:14:58;7.10;;;5.60;;
8889;SDS011;4481;43.406;24.454;2022-09-09T08:17:25;7.93;;;6.23;;
8889;SDS011;4481;43.406;24.454;2022-09-09T08:19:51;11.03;;;5.43;;
8889;SDS011;4481;43.406;24.454;2022-09-09T08:22:17;8.30;;;4.97;;
8889;SDS011;4481;43.406;24.454;2022-09-09T08:24:43;7.20;;;5.60;;
8889;SDS011;4481;43.406;24.454;2022-09-09T08:27:09;7.53;;;5.70;;
8889;SDS011;4481;43.406;24.454;2022-09-09T08:29:36;6.87;;;5.87;;
8889;SDS011;4481;43.406;24.454;2022-09-09T08:32:03;6.97;;;5.30;;
8889;SDS011;4481;43.406;24.454;2022-09-09T08:34:29;8.63;;;5.83;;
8889;SDS011;4481;43.406;24.454;2022-09-09T08:36:56;6.67;;;5.60;;
8889;SDS011;4481;43.406;24.454;2022-09-09T08:39:22;7.90;;;5.43;;
8889;SDS011;4481;43.406;24.454;2022-09-09T08:41:56;8.17;;;6.80;;
8889;SDS011;4481;43.406;24.454;2022-09-09T08:47:42;17.77;;;8.47;;
8889;SDS011;4481;43.406;24.454;2022-09-09T08:50:19;9.30;;;7.50;;
8889;SDS011;4481;43.406;24.454;2022-09-09T08:52:51;34.73;;;8.83;;
8889;SDS011;4481;43.406;24.454;2022-09-09T08:55:25;13.47;;;9.47;;
8889;SDS011;4481;43.406;24.454;2022-09-09T08:57:56;9.47;;;6.60;;
8889;SDS011;4481;43.406;24.454;2022-09-09T09:00:28;10.00;;;7.03;;
8889;SDS011;4481;43.406;24.454;2022-09-09T09:03:04;16.20;;;9.90;;
8889;SDS011;4481;43.406;24.454;2022-09-09T09:05:42;6.57;;;5.97;;
8889;SDS011;4481;43.406;24.454;2022-09-09T09:08:15;41.07;;;25.67;;
8889;SDS011;4481;43.406;24.454;2022-09-09T09:10:48;15.07;;;10.07;;
8889;SDS011;4481;43.406;24.454;2022-09-09T09:13:17;7.13;;;6.50;;
8889;SDS011;4481;43.406;24.454;2022-09-09T09:15:48;10.73;;;7.60;;
8889;SDS011;4481;43.406;24.454;2022-09-09T09:18:18;18.70;;;7.00;;
8889;SDS011;4481;43.406;24.454;2022-09-09T09:20:47;10.90;;;5.67;;
8889;SDS011;4481;43.406;24.454;2022-09-09T09:23:21;7.33;;;5.43;;
8889;SDS011;4481;43.406;24.454;2022-09-09T09:25:48;6.23;;;5.60;;
8889;SDS011;4481;43.406;24.454;2022-09-09T09:28:18;9.47;;;5.43;;
8889;SDS011;4481;43.406;24.454;2022-09-09T09:30:51;10.57;;;5.57;;
8889;SDS011;4481;43.406;24.454;2022-09-09T09:33:20;35.47;;;9.47;;
8889;SDS011;4481;43.406;24.454;2022-09-09T09:35:49;17.43;;;6.20;;
8889;SDS011;4481;43.406;24.454;2022-09-09T09:38:17;15.53;;;9.27;;
8889;SDS011;4481;43.406;24.454;2022-09-09T09:40:48;10.43;;;8.93;;
8889;SDS011;4481;43.406;24.454;2022-09-09T09:43:18;7.80;;;5.80;;
8889;SDS011;4481;43.406;24.454;2022-09-09T09:45:47;7.03;;;5.00;;
8889;SDS011;4481;43.406;24.454;2022-09-09T09:48:14;9.83;;;5.50;;
8889;SDS011;4481;43.406;24.454;2022-09-09T09:50:46;5.43;;;4.90;;
8889;SDS011;4481;43.406;24.454;2022-09-09T09:53:18;9.37;;;5.90;;
8889;SDS011;4481;43.406;24.454;2022-09-09T09:55:48;5.13;;;4.60;;
8889;SDS011;4481;43.406;24.454;2022-09-09T09:58:18;8.53;;;6.30;;
8889;SDS011;4481;43.406;24.454;2022-09-09T10:00:47;6.90;;;5.30;;
8889;SDS011;4481;43.406;24.454;2022-09-09T10:03:19;8.17;;;6.30;;
8889;SDS011;4481;43.406;24.454;2022-09-09T10:05:48;12.63;;;6.20;;
8889;SDS011;4481;43.406;24.454;2022-09-09T10:08:15;8.23;;;5.97;;
8889;SDS011;4481;43.406;24.454;2022-09-09T10:10:47;5.97;;;5.37;;
8889;SDS011;4481;43.406;24.454;2022-09-09T10:13:25;8.17;;;5.63;;
8889;SDS011;4481;43.406;24.454;2022-09-09T10:16:08;6.40;;;5.30;;
8889;SDS011;4481;43.406;24.454;2022-09-09T10:18:52;9.30;;;5.83;;
8889;SDS011;4481;43.406;24.454;2022-09-09T10:21:35;8.93;;;5.20;;
8889;SDS011;4481;43.406;24.454;2022-09-09T10:27:11;7.37;;;4.73;;
8889;SDS011;4481;43.406;24.454;2022-09-09T10:29:51;5.57;;;4.67;;
8889;SDS011;4481;43.406;24.454;2022-09-09T10:32:33;7.10;;;5.33;;
8889;SDS011;4481;43.406;24.454;2022-09-09T10:35:09;5.80;;;4.90;;
8889;SDS011;4481;43.406;24.454;2022-09-09T10:37:42;9.40;;;5.83;;
8889;SDS011;4481;43.406;24.454;2022-09-09T10:40:20;7.47;;;5.70;;
8889;SDS011;4481;43.406;24.454;2022-09-09T10:42:59;8.47;;;6.17;;
8889;SDS011;4481;43.406;24.454;2022-09-09T10:45:34;7.00;;;5.70;;
8889;SDS011;4481;43.406;24.454;2022-09-09T10:48:11;10.70;;;6.27;;
8889;SDS011;4481;43.406;24.454;2022-09-09T10:50:49;8.93;;;6.37;;
8889;SDS011;4481;43.406;24.454;2022-09-09T10:53:22;11.80;;;6.30;;
8889;SDS011;4481;43.406;24.454;2022-09-09T10:56:01;19.53;;;6.90;;
8889;SDS011;4481;43.406;24.454;2022-09-09T10:58:33;16.37;;;6.00;;
8889;SDS011;4481;43.406;24.454;2022-09-09T11:01:09;12.23;;;6.43;;
8889;SDS011;4481;43.406;24.454;2022-09-09T11:03:41;10.07;;;5.93;;
8889;SDS011;4481;43.406;24.454;2022-09-09T11:06:11;15.17;;;5.60;;
8889;SDS011;4481;43.406;24.454;2022-09-09T11:08:40;7.47;;;5.30;;
8889;SDS011;4481;43.406;24.454;2022-09-09T11:11:09;10.63;;;6.00;;
8889;SDS011;4481;43.406;24.454;2022-09-09T11:13:39;10.57;;;6.30;;
8889;SDS011;4481;43.406;24.454;2022-09-09T11:16:17;7.77;;;6.20;;
8889;SDS011;4481;43.406;24.454;2022-09-09T11:18:50;6.90;;;5.37;;
8889;SDS011;4481;43.406;24.454;2022-09-09T11:21:25;7.83;;;5.77;;
8889;SDS011;4481;43.406;24.454;2022-09-09T11:23:57;9.70;;;5.90;;
8889;SDS011;4481;43.406;24.454;2022-09-09T11:26:29;7.27;;;5.50;;
8889;SDS011;4481;43.406;24.454;2022-09-09T11:29:04;8.80;;;5.83;;
8889;SDS011;4481;43.406;24.454;2022-09-09T11:31:52;8.47;;;6.10;;
8889;SDS011;4481;43.406;24.454;2022-09-09T11:34:36;27.73;;;12.53;;
8889;SDS011;4481;43.406;24.454;2022-09-09T11:40:14;11.60;;;6.37;;
8889;SDS011;4481;43.406;24.454;2022-09-09T11:42:44;13.07;;;6.30;;
8889;SDS011;4481;43.406;24.454;2022-09-09T11:45:22;6.40;;;5.80;;
8889;SDS011;4481;43.406;24.454;2022-09-09T11:47:52;17.77;;;10.13;;
8889;SDS011;4481;43.406;24.454;2022-09-09T11:50:33;14.03;;;9.13;;
8889;SDS011;4481;43.406;24.454;2022-09-09T11:53:18;10.90;;;6.33;;
8889;SDS011;4481;43.406;24.454;2022-09-09T11:55:48;7.57;;;5.90;;
8889;SDS011;4481;43.406;24.454;2022-09-09T11:58:26;8.83;;;5.20;;
8889;SDS011;4481;43.406;24.454;2022-09-09T12:00:57;7.27;;;5.20;;
8889;SDS011;4481;43.406;24.454;2022-09-09T12:03:34;9.47;;;6.80;;
8889;SDS011;4481;43.406;24.454;2022-09-09T12:06:15;14.93;;;5.77;;
8889;SDS011;4481;43.406;24.454;2022-09-09T12:08:47;11.27;;;5.60;;
8889;SDS011;4481;43.406;24.454;2022-09-09T12:11:25;6.90;;;6.30;;
8889;SDS011;4481;43.406;24.454;2022-09-09T12:13:52;11.97;;;6.23;;
8889;SDS011;4481;43.406;24.454;2022-09-09T12:16:31;6.23;;;5.73;;
8889;SDS011;4481;43.406;24.454;2022-09-09T12:19:06;9.90;;;6.37;;
8889;SDS011;4481;43.406;24.454;2022-09-09T12:21:40;12.77;;;6.97;;
8889;SDS011;4481;43.406;24.454;2022-09-09T12:24:15;9.40;;;5.63;;
8889;SDS011;4481;43.406;24.454;2022-09-09T12:26:50;8.37;;;5.73;;
8889;SDS011;4481;43.406;24.454;2022-09-09T12:29:23;9.63;;;6.10;;
8889;SDS011;4481;43.406;24.454;2022-09-09T12:31:54;5.33;;;4.83;;
8889;SDS011;4481;43.406;24.454;2022-09-09T12:34:29;7.80;;;5.70;;
8889;SDS011;4481;43.406;24.454;2022-09-09T12:37:05;13.40;;;6.53;;
8889;SDS011;4481;43.406;24.454;2022-09-09T12:39:42;5.57;;;5.03;;
8889;SDS011;4481;43.406;24.454;2022-09-09T12:42:16;6.70;;;5.80;;
8889;SDS011;4481;43.406;24.454;2022-09-09T12:44:50;8.67;;;5.73;;
8889;SDS011;4481;43.406;24.454;2022-09-09T12:47:17;9.83;;;6.67;;
8889;SDS011;4481;43.406;24.454;2022-09-09T12:49:46;7.07;;;6.17;;
8889;SDS011;4481;43.406;24.454;2022-09-09T12:52:17;7.37;;;6.43;;
8889;SDS011;4481;43.406;24.454;2022-09-09T12:54:50;11.43;;;6.23;;
8889;SDS011;4481;43.406;24.454;2022-09-09T12:57:17;15.97;;;6.63;;
8889;SDS011;4481;43.406;24.454;2022-09-09T12:59:43;10.73;;;6.17;;
8889;SDS011;4481;43.406;24.454;2022-09-09T13:02:11;8.80;;;6.30;;
8889;SDS011;4481;43.406;24.454;2022-09-09T13:04:44;13.93;;;7.10;;
8889;SDS011;4481;43.406;24.454;2022-09-09T13:07:12;11.00;;;6.70;;
8889;SDS011;4481;43.406;24.454;2022-09-09T13:09:38;15.33;;;6.40;;
8889;SDS011;4481;43.406;24.454;2022-09-09T13:12:06;9.90;;;6.33;;
8889;SDS011;4481;43.406;24.454;2022-09-09T13:14:39;10.80;;;7.33;;
8889;SDS011;4481;43.406;24.454;2022-09-09T13:17:16;8.83;;;6.90;;
8889;SDS011;4481;43.406;24.454;2022-09-09T13:19:45;8.70;;;7.77;;
8889;SDS011;4481;43.406;24.454;2022-09-09T13:22:13;27.20;;;9.90;;
8889;SDS011;4481;43.406;24.454;2022-09-09T13:24:45;14.00;;;9.53;;
8889;SDS011;4481;43.406;24.454;2022-09-09T13:27:24;12.53;;;6.50;;
8889;SDS011;4481;43.406;24.454;2022-09-09T13:29:54;7.63;;;6.23;;
8889;SDS011;4481;43.406;24.454;2022-09-09T13:32:22;19.13;;;8.63;;
8889;SDS011;4481;43.406;24.454;2022-09-09T13:34:52;10.80;;;7.67;;
8889;SDS011;4481;43.406;24.454;2022-09-09T13:37:21;20.50;;;7.43;;
8889;SDS011;4481;43.406;24.454;2022-09-09T13:39:51;15.53;;;7.93;;
8889;SDS011;4481;43.406;24.454;2022-09-09T13:42:21;10.27;;;7.47;;
8889;SDS011;4481;43.406;24.454;2022-09-09T13:44:51;18.87;;;8.00;;
8889;SDS011;4481;43.406;24.454;2022-09-09T13:47:18;8.50;;;6.23;;
8889;SDS011;4481;43.406;24.454;2022-09-09T13:49:45;9.00;;;6.27;;
8889;SDS011;4481;43.406;24.454;2022-09-09T13:52:12;10.83;;;7.17;;
8889;SDS011;4481;43.406;24.454;2022-09-09T13:54:40;10.27;;;7.67;;
8889;SDS011;4481;43.406;24.454;2022-09-09T13:57:14;12.80;;;8.43;;
8889;SDS011;4481;43.406;24.454;2022-09-09T13:59:43;16.33;;;10.70;;
8889;SDS011;4481;43.406;24.454;2022-09-09T14:02:10;9.57;;;7.63;;
8889;SDS011;4481;43.406;24.454;2022-09-09T14:04:37;9.57;;;6.47;;
8889;SDS011;4481;43.406;24.454;2022-09-09T14:07:03;9.90;;;8.10;;
8889;SDS011;4481;43.406;24.454;2022-09-09T14:09:29;10.83;;;7.40;;
8889;SDS011;4481;43.406;24.454;2022-09-09T14:11:55;14.70;;;7.83;;
8889;SDS011;4481;43.406;24.454;2022-09-09T14:14:21;9.80;;;7.40;;
8889;SDS011;4481;43.406;24.454;2022-09-09T14:16:48;12.37;;;7.97;;
8889;SDS011;4481;43.406;24.454;2022-09-09T14:19:14;10.07;;;7.80;;
8889;SDS011;4481;43.406;24.454;2022-09-09T14:21:40;17.20;;;8.50;;
8889;SDS011;4481;43.406;24.454;2022-09-09T14:24:06;11.10;;;8.90;;
8889;SDS011;4481;43.406;24.454;2022-09-09T14:26:32;18.03;;;8.47;;
8889;SDS011;4481;43.406;24.454;2022-09-09T14:28:59;14.43;;;8.90;;
8889;SDS011;4481;43.406;24.454;2022-09-09T14:31:26;13.10;;;8.47;;
8889;SDS011;4481;43.406;24.454;2022-09-09T14:33:53;17.93;;;7.10;;
8889;SDS011;4481;43.406;24.454;2022-09-09T14:36:19;29.40;;;7.90;;
8889;SDS011;4481;43.406;24.454;2022-09-09T14:38:45;16.83;;;7.57;;
8889;SDS011;4481;43.406;24.454;2022-09-09T14:41:12;14.10;;;7.57;;
8889;SDS011;4481;43.406;24.454;2022-09-09T14:43:43;14.47;;;7.30;;
8889;SDS011;4481;43.406;24.454;2022-09-09T14:46:11;7.83;;;7.00;;
8889;SDS011;4481;43.406;24.454;2022-09-09T14:48:38;10.53;;;7.67;;
8889;SDS011;4481;43.406;24.454;2022-09-09T14:51:07;9.20;;;7.50;;
8889;SDS011;4481;43.406;24.454;2022-09-09T14:53:34;12.10;;;7.40;;
8889;SDS011;4481;43.406;24.454;2022-09-09T14:56:04;15.47;;;7.60;;
8889;SDS011;4481;43.406;24.454;2022-09-09T14:58:31;15.63;;;8.00;;
8889;SDS011;4481;43.406;24.454;2022-09-09T15:01:01;10.53;;;7.07;;
8889;SDS011;4481;43.406;24.454;2022-09-09T15:03:28;9.43;;;7.20;;
8889;SDS011;4481;43.406;24.454;2022-09-09T15:05:54;11.87;;;6.60;;
8889;SDS011;4481;43.406;24.454;2022-09-09T15:08:21;8.10;;;7.30;;
8889;SDS011;4481;43.406;24.454;2022-09-09T15:10:47;7.57;;;6.53;;
8889;SDS011;4481;43.406;24.454;2022-09-09T15:13:15;12.50;;;6.60;;
8889;SDS011;4481;43.406;24.454;2022-09-09T15:15:42;8.20;;;6.80;;
8889;SDS011;4481;43.406;24.454;2022-09-09T15:18:09;8.33;;;6.73;;